Time,TemperatureF,DewpointF,PressureIn,WindDirection,WindDirectionDegrees,WindSpeedMPH,WindSpeedGustMPH,Humidity,HourlyPrecipIn,Conditions,Clouds,dailyrainin,SoftwareType,DateUTC
2013-02-14 00:10:00,29.2,27.0,29.90,North,358,1.0,2.0,90,0.00,,,0.00,weatherlink.com 1.10,2013-02-14 05:10:00,
2013-02-14 00:25:00,29.3,27.0,29.90,NNE,17,1.0,1.0,90,0.00,,,0.00,weatherlink.com 1.10,2013-02-14 05:25:00,
2013-02-14 00:40:00,30.0,28.0,29.90,North,6,1.0,2.0,90,0.00,,,0.00,weatherlink.com 1.10,2013-02-14 05:40:00,
2013-02-14 00:55:00,29.6,27.0,29.90,NNE,15,0.0,2.0,89,0.00,,,0.00,weatherlink.com 1.10,2013-02-14 05:55:00,
2013-02-14 01:10:00,28.8,26.0,29.90,North,11,0.0,1.0,89,0.00,,,0.00,weatherlink.com 1.10,2013-02-14 06:10:00,
2013-02-14 01:27:00,28.4,26.0,29.90,North,5,0.0,1.0,91,0.00,,,0.00,weatherlink.com 1.10,2013-02-14 06:27:00,
2013-02-14 01:40:00,27.8,26.0,29.90,North,5,0.0,1.0,91,0.00,,,0.00,weatherlink.com 1.10,2013-02-14 06:40:00,
2013-02-14 01:55:00,27.4,25.0,29.90,North,5,0.0,1.0,92,0.00,,,0.00,weatherlink.com 1.10,2013-02-14 06:55:00,
2013-02-14 02:10:00,28.1,26.0,29.90,NW,321,0.0,2.0,93,0.00,,,0.00,weatherlink.com 1.10,2013-02-14 07:10:00,
2013-02-14 02:25:00,27.6,26.0,29.90,North,352,1.0,1.0,92,0.00,,,0.00,weatherlink.com 1.10,2013-02-14 07:25:00,
2013-02-14 02:40:00,28.3,27.0,29.90,North,6,1.0,2.0,93,0.00,,,0.00,weatherlink.com 1.10,2013-02-14 07:40:00,
2013-02-14 02:55:00,28.3,27.0,29.90,North,9,1.0,1.0,93,0.00,,,0.00,weatherlink.com 1.10,2013-02-14 07:55:00,
2013-02-14 03:11:00,28.5,27.0,29.90,NNE,25,3.0,3.0,93,0.00,,,0.00,weatherlink.com 1.10,2013-02-14 08:11:00,
2013-02-14 03:25:00,28.6,27.0,29.90,NNE,29,3.0,4.0,93,0.00,,,0.00,weatherlink.com 1.10,2013-02-14 08:25:00,
2013-02-14 03:41:00,28.6,27.0,29.90,NE,49,1.0,3.0,93,0.00,,,0.00,weatherlink.com 1.10,2013-02-14 08:41:00,
2013-02-14 03:56:00,28.5,27.0,29.89,NNE,18,1.0,3.0,93,0.00,,,0.00,weatherlink.com 1.10,2013-02-14 08:56:00,
2013-02-14 04:11:00,28.2,27.0,29.89,North,6,0.0,3.0,93,0.00,,,0.00,weatherlink.com 1.10,2013-02-14 09:11:00,
2013-02-14 04:25:00,27.8,26.0,29.89,NNW,331,0.0,1.0,93,0.00,,,0.00,weatherlink.com 1.10,2013-02-14 09:25:00,
2013-02-14 04:41:00,27.7,26.0,29.89,North,356,0.0,3.0,94,0.00,,,0.00,weatherlink.com 1.10,2013-02-14 09:41:00,
2013-02-14 04:56:00,28.5,27.0,29.90,North,5,2.0,2.0,95,0.00,,,0.00,weatherlink.com 1.10,2013-02-14 09:56:00,
2013-02-14 05:11:00,29.3,28.0,29.90,NW,308,0.0,4.0,95,0.00,,,0.00,weatherlink.com 1.10,2013-02-14 10:11:00,
2013-02-14 05:26:00,29.5,28.0,29.89,North,352,2.0,4.0,94,0.00,,,0.00,weatherlink.com 1.10,2013-02-14 10:26:00,
2013-02-14 05:41:00,29.9,28.0,29.89,NNW,345,1.0,4.0,94,0.00,,,0.00,weatherlink.com 1.10,2013-02-14 10:41:00,
2013-02-14 05:56:00,30.0,29.0,29.89,North,352,3.0,4.0,94,0.00,,,0.00,weatherlink.com 1.10,2013-02-14 10:56:00,
2013-02-14 06:11:00,30.3,29.0,29.89,NNE,21,1.0,5.0,94,0.00,,,0.00,weatherlink.com 1.10,2013-02-14 11:11:00,
2013-02-14 06:26:00,30.6,29.0,29.89,NNW,333,0.0,3.0,94,0.00,,,0.00,weatherlink.com 1.10,2013-02-14 11:26:00,
2013-02-14 06:41:00,31.1,30.0,29.89,NW,321,3.0,4.0,95,0.00,,,0.00,weatherlink.com 1.10,2013-02-14 11:41:00,
2013-02-14 06:56:00,31.6,30.0,29.89,NE,49,2.0,4.0,95,0.00,,,0.00,weatherlink.com 1.10,2013-02-14 11:56:00,
2013-02-14 07:11:00,32.1,31.0,29.89,ENE,63,0.0,4.0,95,0.00,,,0.00,weatherlink.com 1.10,2013-02-14 12:11:00,
2013-02-14 07:26:00,32.3,31.0,29.90,ENE,60,2.0,5.0,95,0.00,,,0.00,weatherlink.com 1.10,2013-02-14 12:26:00,
2013-02-14 07:41:00,32.5,31.0,29.90,NNE,32,2.0,6.0,95,0.00,,,0.00,weatherlink.com 1.10,2013-02-14 12:41:00,
2013-02-14 07:56:00,32.6,31.0,29.90,NNE,24,3.0,6.0,95,0.00,,,0.00,weatherlink.com 1.10,2013-02-14 12:56:00,
2013-02-14 08:11:00,32.7,32.0,29.91,NE,40,3.0,7.0,95,0.00,,,0.00,weatherlink.com 1.10,2013-02-14 13:11:00,
2013-02-14 08:26:00,32.9,32.0,29.91,North,8,2.0,6.0,95,0.00,,,0.00,weatherlink.com 1.10,2013-02-14 13:26:00,
2013-02-14 08:41:00,33.1,32.0,29.91,NNW,338,2.0,6.0,95,0.00,,,0.00,weatherlink.com 1.10,2013-02-14 13:41:00,
2013-02-14 08:56:00,33.3,32.0,29.91,North,356,3.0,5.0,94,0.00,,,0.00,weatherlink.com 1.10,2013-02-14 13:56:00,
2013-02-14 09:11:00,33.4,32.0,29.90,NE,39,4.0,5.0,94,0.00,,,0.00,weatherlink.com 1.10,2013-02-14 14:11:00,
2013-02-14 09:26:00,33.6,32.0,29.90,NNW,330,4.0,6.0,94,0.00,,,0.00,weatherlink.com 1.10,2013-02-14 14:26:00,
2013-02-14 09:41:00,33.9,32.0,29.90,NNE,16,3.0,7.0,94,0.00,,,0.00,weatherlink.com 1.10,2013-02-14 14:41:00,
2013-02-14 09:56:00,34.2,32.0,29.90,NNE,15,3.0,6.0,93,0.00,,,0.00,weatherlink.com 1.10,2013-02-14 14:56:00,
2013-02-14 10:11:00,34.5,33.0,29.90,NE,49,2.0,8.0,93,0.00,,,0.00,weatherlink.com 1.10,2013-02-14 15:11:00,
2013-02-14 10:26:00,34.7,33.0,29.90,ENE,72,2.0,7.0,93,0.00,,,0.00,weatherlink.com 1.10,2013-02-14 15:26:00,
2013-02-14 10:41:00,34.9,33.0,29.90,ENE,57,4.0,8.0,92,0.00,,,0.00,weatherlink.com 1.10,2013-02-14 15:41:00,
2013-02-14 10:56:00,35.5,33.0,29.89,NNE,15,0.0,7.0,92,0.00,,,0.00,weatherlink.com 1.10,2013-02-14 15:56:00,
2013-02-14 11:12:00,35.8,34.0,29.89,NNW,346,3.0,7.0,91,0.00,,,0.00,weatherlink.com 1.10,2013-02-14 16:12:00,
2013-02-14 11:26:00,36.4,34.0,29.89,NNW,338,5.0,8.0,90,0.01,,,0.01,weatherlink.com 1.10,2013-02-14 16:26:00,
2013-02-14 11:41:00,37.3,34.0,29.89,NE,46,9.0,9.0,88,0.01,,,0.01,weatherlink.com 1.10,2013-02-14 16:41:00,
2013-02-14 11:56:00,38.1,35.0,29.88,North,357,3.0,7.0,87,0.01,,,0.01,weatherlink.com 1.10,2013-02-14 16:56:00,
2013-02-14 12:11:00,38.6,35.0,29.88,North,6,2.0,9.0,85,0.01,,,0.01,weatherlink.com 1.10,2013-02-14 17:11:00,
2013-02-14 12:26:00,40.4,36.0,29.87,NE,47,8.0,8.0,83,0.00,,,0.01,weatherlink.com 1.10,2013-02-14 17:26:00,
2013-02-14 12:42:00,41.4,36.0,29.86,East,81,4.0,6.0,82,0.00,,,0.01,weatherlink.com 1.10,2013-02-14 17:42:00,
2013-02-14 12:59:00,43.9,37.0,29.86,WNW,291,3.0,8.0,77,0.00,,,0.01,weatherlink.com 1.10,2013-02-14 17:59:00,
2013-02-14 13:12:00,43.7,37.0,29.85,North,4,2.0,9.0,76,0.00,,,0.01,weatherlink.com 1.10,2013-02-14 18:12:00,
2013-02-14 13:27:00,45.5,38.0,29.84,North,351,5.0,8.0,74,0.00,,,0.01,weatherlink.com 1.10,2013-02-14 18:27:00,
2013-02-14 13:42:00,47.6,38.0,29.84,NE,34,6.0,7.0,70,0.00,,,0.01,weatherlink.com 1.10,2013-02-14 18:42:00,
2013-02-14 13:57:00,47.4,38.0,29.83,North,11,4.0,9.0,70,0.00,,,0.01,weatherlink.com 1.10,2013-02-14 18:57:00,
2013-02-14 14:12:00,49.9,38.0,29.82,NE,52,6.0,10.0,65,0.00,,,0.01,weatherlink.com 1.10,2013-02-14 19:12:00,
2013-02-14 14:27:00,51.0,39.0,29.82,North,351,4.0,9.0,63,0.00,,,0.01,weatherlink.com 1.10,2013-02-14 19:27:00,
2013-02-14 14:42:00,52.4,39.0,29.81,NNE,31,6.0,8.0,61,0.00,,,0.01,weatherlink.com 1.10,2013-02-14 19:42:00,
2013-02-14 15:12:00,52.5,37.0,29.82,North,9,7.0,13.0,57,0.00,,,0.01,weatherlink.com 1.10,2013-02-14 20:12:00,
2013-02-14 15:27:00,53.4,38.0,29.81,East,84,2.0,8.0,57,0.00,,,0.01,weatherlink.com 1.10,2013-02-14 20:27:00,
2013-02-14 15:42:00,53.0,37.0,29.82,NE,47,2.0,8.0,56,0.00,,,0.01,weatherlink.com 1.10,2013-02-14 20:42:00,
2013-02-14 15:59:00,51.4,36.0,29.82,North,356,5.0,8.0,57,0.00,,,0.01,weatherlink.com 1.10,2013-02-14 20:59:00,
2013-02-14 16:12:00,50.8,36.0,29.83,NE,37,4.0,6.0,58,0.00,,,0.01,weatherlink.com 1.10,2013-02-14 21:12:00,
2013-02-14 16:27:00,51.0,36.0,29.83,NE,49,8.0,10.0,57,0.00,,,0.01,weatherlink.com 1.10,2013-02-14 21:27:00,
2013-02-14 16:42:00,51.9,37.0,29.83,ENE,75,2.0,8.0,57,0.00,,,0.01,weatherlink.com 1.10,2013-02-14 21:42:00,
2013-02-14 16:57:00,50.6,37.0,29.84,NE,46,4.0,11.0,59,0.00,,,0.01,weatherlink.com 1.10,2013-02-14 21:57:00,
2013-02-14 17:12:00,49.8,37.0,29.85,NNW,340,4.0,8.0,61,0.00,,,0.01,weatherlink.com 1.10,2013-02-14 22:12:00,
2013-02-14 17:28:00,48.9,36.0,29.86,ESE,106,1.0,5.0,61,0.00,,,0.01,weatherlink.com 1.10,2013-02-14 22:28:00,
2013-02-14 17:42:00,48.6,36.0,29.86,ENE,57,1.0,10.0,63,0.00,,,0.01,weatherlink.com 1.10,2013-02-14 22:42:00,
2013-02-14 17:57:00,47.9,36.0,29.87,NE,51,2.0,10.0,63,0.00,,,0.01,weatherlink.com 1.10,2013-02-14 22:57:00,
2013-02-14 18:12:00,47.0,35.0,29.87,ENE,61,1.0,6.0,63,0.00,,,0.01,weatherlink.com 1.10,2013-02-14 23:12:00,
2013-02-14 18:27:00,46.2,35.0,29.88,ENE,77,1.0,4.0,65,0.00,,,0.01,weatherlink.com 1.10,2013-02-14 23:27:00,
2013-02-14 18:42:00,45.8,35.0,29.89,NE,46,4.0,7.0,65,0.00,,,0.01,weatherlink.com 1.10,2013-02-14 23:42:00,
2013-02-14 18:57:00,45.5,34.0,29.90,East,90,1.0,4.0,64,0.00,,,0.01,weatherlink.com 1.10,2013-02-14 23:57:00,
2013-02-14 19:12:00,44.4,34.0,29.91,NE,40,0.0,2.0,66,0.00,,,0.01,weatherlink.com 1.10,2013-02-15 00:12:00,
2013-02-14 19:28:00,43.9,34.0,29.91,East,92,0.0,2.0,67,0.00,,,0.01,weatherlink.com 1.10,2013-02-15 00:28:00,
2013-02-14 19:43:00,43.9,34.0,29.92,ESE,103,0.0,3.0,67,0.00,,,0.01,weatherlink.com 1.10,2013-02-15 00:43:00,
2013-02-14 19:57:00,44.1,34.0,29.93,SE,125,4.0,8.0,67,0.00,,,0.01,weatherlink.com 1.10,2013-02-15 00:57:00,
2013-02-14 20:12:00,43.4,35.0,29.94,SSE,149,3.0,8.0,71,0.00,,,0.01,weatherlink.com 1.10,2013-02-15 01:12:00,
2013-02-14 20:27:00,41.9,35.0,29.94,SSE,153,2.0,5.0,75,0.00,,,0.01,weatherlink.com 1.10,2013-02-15 01:27:00,
2013-02-14 20:43:00,40.6,35.0,29.95,SE,143,0.0,4.0,79,0.00,,,0.01,weatherlink.com 1.10,2013-02-15 01:43:00,
2013-02-14 20:57:00,40.2,34.0,29.96,SE,143,5.0,7.0,79,0.00,,,0.01,weatherlink.com 1.10,2013-02-15 01:57:00,
2013-02-14 21:13:00,39.5,33.0,29.96,SE,131,2.0,6.0,78,0.00,,,0.01,weatherlink.com 1.10,2013-02-15 02:13:00,
2013-02-14 21:28:00,38.5,33.0,29.97,ESE,106,0.0,3.0,79,0.00,,,0.01,weatherlink.com 1.10,2013-02-15 02:28:00,
2013-02-14 21:43:00,37.4,32.0,29.98,ESE,108,0.0,0.0,81,0.00,,,0.01,weatherlink.com 1.10,2013-02-15 02:43:00,
2013-02-14 21:58:00,36.9,32.0,29.98,ESE,121,1.0,2.0,82,0.00,,,0.01,weatherlink.com 1.10,2013-02-15 02:58:00,
2013-02-14 22:13:00,36.7,31.0,29.98,SE,126,1.0,3.0,81,0.00,,,0.01,weatherlink.com 1.10,2013-02-15 03:13:00,
2013-02-14 22:28:00,36.3,31.0,29.98,SE,128,0.0,3.0,80,0.00,,,0.01,weatherlink.com 1.10,2013-02-15 03:28:00,
2013-02-14 22:43:00,35.4,30.0,29.98,East,81,0.0,1.0,80,0.00,,,0.01,weatherlink.com 1.10,2013-02-15 03:43:00,
2013-02-14 22:58:00,35.3,30.0,29.98,ESE,108,0.0,3.0,82,0.00,,,0.01,weatherlink.com 1.10,2013-02-15 03:58:00,
2013-02-14 23:13:00,35.1,30.0,29.98,SE,134,0.0,1.0,81,0.00,,,0.01,weatherlink.com 1.10,2013-02-15 04:13:00,
2013-02-14 23:28:00,35.2,30.0,29.99,NE,41,0.0,2.0,81,0.00,,,0.01,weatherlink.com 1.10,2013-02-15 04:28:00,
2013-02-14 23:43:00,35.0,30.0,29.99,ENE,68,0.0,1.0,81,0.00,,,0.01,weatherlink.com 1.10,2013-02-15 04:43:00,
2013-02-14 23:58:00,34.1,29.0,29.99,SSW,212,0.0,1.0,82,0.00,,,0.01,weatherlink.com 1.10,2013-02-15 04:58:00,